General Aviation Weather

Text Reports

Enter one or more of the following location identifiers separated by a space:

Zip Code, Four-Character ICAO or Three-Character IATA airport codes.

METAR - Aviation Routine Weather Report
GOOY - Dakar,
Updated at 1:00 PM GMT on August 27, 2014 (1:00 PM GMT):
METAR GOOY 271300Z 33006KT 260V020 9999 FEW010 31/25 Q1012 NOSIG
TAF - Terminal Area Forecast
GOOY - Dakar,
Updated at 1:00 PM GMT on August 27, 2014 (1:00 PM GMT):
TAF GOOY 271130Z 2712/2818 33008KT 9999 SCT010=
Decoded:
ID: GOOY   Dakar/Yoff, SG
REPORT TIME: 27 11:30
VALID TIME: 27 August AT 12:00Z to 28 August AT 18:00Z.
INITIAL WX
   WINDS: 330 AT 8
   CLOUDS: 10 SCT
   COMMENTS: = 

PIREP - Pilot Weather Report
GOOY - Dakar,
Updated at 1:00 PM GMT on August 27, 2014 (1:00 PM GMT):
No PIREP is currently available for this location.
AIRMET - Airmens Meteorological Information
GOOY - Dakar,
Updated at 1:00 PM GMT on August 27, 2014 (1:00 PM GMT):
No AIRMET is currently available for this location.
SIGMET - Significant Meteorological Information
GOOY - Dakar,
Updated at 1:00 PM GMT on August 27, 2014 (1:00 PM GMT):
No SIGMET is currently available for this location.
NOTAM - Notice to Airmen
GOOY - Dakar,
Updated at 1:00 PM GMT on August 27, 2014 (1:00 PM GMT):
No NOTAM is currently available for this location.
Forecast Area
GOOY - Dakar,
Updated at 1:00 PM GMT on August 27, 2014 (1:00 PM GMT):
No NOTAM is currently available for this location.
Aviation Weather Maps